^^
Saratoga-Weather Station Historical Data
Daily Summary for July 18, 2021 Units:  Both    English   Metric
Daily Weekly Monthly Yearly Custom
  High: Low: Average:
Temperature: 74.7 °F /  23.7 °C 50 °F /  10 °C 59.9 °F /  15.5 °C
Dew Point: 57.6 °F /  14.2 °C 48.7 °F /  9.3 °C 53.1 °F /  11.7 °C
Humidity: 97% 48% 80%
Wind Speed: 6.9mph /  11.1km/h - 0.5mph /  0.8km/h
Wind Gust: 10mph /  16.1km/h - -
Wind- - ESE
Pressure: 30 in /  1015.9 hPa 29.9 in /  1012.9 hPa -
Precipitation: 0 in /  0.0 mm    
Historical Graphs
 
 
Tabular Data for July 18, 2021
Time Temperature Dew Point Pressure Wind Wind Speed Wind Gust Humidity Rainfall Rate (Hourly) solar
00:04 54.1 °F /  12.3 °C 52.2 °F /  11.2 °C 30in /  1015.2hPa Calm     93% 0in /  0.0mm 0 W/m2
00:09 54 °F /  12.2 °C 52 °F /  11.1 °C 30in /  1014.9hPa Calm     93% 0in /  0.0mm 0 W/m2
00:15 53.8 °F /  12.1 °C 51.8 °F /  11 °C 30in /  1014.9hPa Calm     93% 0in /  0.0mm 0 W/m2
00:20 53.8 °F /  12.1 °C 51.8 °F /  11 °C 30in /  1014.9hPa Calm     93% 0in /  0.0mm 0 W/m2
00:25 53.6 °F /  12 °C 51.6 °F /  10.9 °C 30in /  1014.9hPa Calm     93% 0in /  0.0mm 0 W/m2
00:30 53.4 °F /  11.9 °C 51.4 °F /  10.8 °C 30in /  1015.2hPa Calm     93% 0in /  0.0mm 0 W/m2
00:35 53.4 °F /  11.9 °C 51.8 °F /  11 °C 30in /  1015.2hPa Calm     94% 0in /  0.0mm 0 W/m2
00:40 53.2 °F /  11.8 °C 51.6 °F /  10.9 °C 30in /  1015.2hPa Calm     94% 0in /  0.0mm 0 W/m2
00:45 53.2 °F /  11.8 °C 51.3 °F /  10.7 °C 30in /  1014.9hPa Calm     93% 0in /  0.0mm 0 W/m2
00:50 53.1 °F /  11.7 °C 51.4 °F /  10.8 °C 30in /  1014.9hPa Calm     94% 0in /  0.0mm 0 W/m2
00:55 53.1 °F /  11.7 °C 51.4 °F /  10.8 °C 30in /  1014.9hPa Calm     94% 0in /  0.0mm 0 W/m2
01:00 52.9 °F /  11.6 °C 51.3 °F /  10.7 °C 30in /  1014.9hPa Calm     94% 0in /  0.0mm 0 W/m2
01:05 52.9 °F /  11.6 °C 51.3 °F /  10.7 °C 30in /  1015.2hPa Calm     94% 0in /  0.0mm 0 W/m2
01:10 52.9 °F /  11.6 °C 51.3 °F /  10.7 °C 30in /  1015.2hPa Calm     94% 0in /  0.0mm 0 W/m2
01:15 52.7 °F /  11.5 °C 51.1 °F /  10.6 °C 30in /  1015.2hPa Calm     94% 0in /  0.0mm 0 W/m2
01:20 52.5 °F /  11.4 °C 50.9 °F /  10.5 °C 30in /  1015.2hPa Calm     94% 0in /  0.0mm 0 W/m2
01:25 52.5 °F /  11.4 °C 50.9 °F /  10.5 °C 30in /  1015.2hPa Calm     94% 0in /  0.0mm 0 W/m2
01:30 52.5 °F /  11.4 °C 50.9 °F /  10.5 °C 30in /  1015.2hPa Calm     94% 0in /  0.0mm 0 W/m2
01:35 52.5 °F /  11.4 °C 51.1 °F /  10.6 °C 30in /  1015.2hPa Calm     95% 0in /  0.0mm 0 W/m2
01:40 52.5 °F /  11.4 °C 51.1 °F /  10.6 °C 30in /  1015.2hPa Calm     95% 0in /  0.0mm 0 W/m2
01:45 52.5 °F /  11.4 °C 51.1 °F /  10.6 °C 30in /  1015.2hPa Calm     95% 0in /  0.0mm 0 W/m2
01:50 52.3 °F /  11.3 °C 50.9 °F /  10.5 °C 30in /  1015.2hPa Calm     95% 0in /  0.0mm 0 W/m2
01:55 52.3 °F /  11.3 °C 50.9 °F /  10.5 °C 30in /  1015.2hPa Calm     95% 0in /  0.0mm 0 W/m2
02:00 52.3 °F /  11.3 °C 50.9 °F /  10.5 °C 30in /  1015.2hPa Calm     95% 0in /  0.0mm 0 W/m2
02:05 52.3 °F /  11.3 °C 50.9 °F /  10.5 °C 30in /  1015.2hPa Calm     95% 0in /  0.0mm 0 W/m2
02:10 52.3 °F /  11.3 °C 50.9 °F /  10.5 °C 30in /  1015.2hPa Calm     95% 0in /  0.0mm 0 W/m2
02:15 52.3 °F /  11.3 °C 50.9 °F /  10.5 °C 30in /  1015.2hPa Calm     95% 0in /  0.0mm 0 W/m2
02:20 52.2 °F /  11.2 °C 50.7 °F /  10.4 °C 30in /  1015.2hPa Calm     95% 0in /  0.0mm 0 W/m2
02:25 52.2 °F /  11.2 °C 50.7 °F /  10.4 °C 30in /  1015.2hPa Calm     95% 0in /  0.0mm 0 W/m2
02:30 52.2 °F /  11.2 °C 50.7 °F /  10.4 °C 30in /  1015.2hPa Calm     95% 0in /  0.0mm 0 W/m2
02:35 52.2 °F /  11.2 °C 50.7 °F /  10.4 °C 30in /  1015.2hPa Calm     95% 0in /  0.0mm 0 W/m2
02:40 52 °F /  11.1 °C 50.5 °F /  10.3 °C 30in /  1015.2hPa Calm     95% 0in /  0.0mm 0 W/m2
02:45 52 °F /  11.1 °C 50.5 °F /  10.3 °C 30in /  1015.2hPa Calm     95% 0in /  0.0mm 0 W/m2
02:50 52 °F /  11.1 °C 50.5 °F /  10.3 °C 30in /  1015.2hPa Calm     95% 0in /  0.0mm 0 W/m2
02:55 51.8 °F /  11 °C 50.4 °F /  10.2 °C 30in /  1015.2hPa Calm     95% 0in /  0.0mm 0 W/m2
03:00 51.6 °F /  10.9 °C 50.2 °F /  10.1 °C 30in /  1015.2hPa Calm     95% 0in /  0.0mm 0 W/m2
03:05 51.6 °F /  10.9 °C 50.2 °F /  10.1 °C 30in /  1015.2hPa Calm     95% 0in /  0.0mm 0 W/m2
03:10 51.6 °F /  10.9 °C 50.2 °F /  10.1 °C 30in /  1015.2hPa Calm     95% 0in /  0.0mm 0 W/m2
03:15 51.4 °F /  10.8 °C 50 °F /  10 °C 30in /  1015.2hPa Calm     95% 0in /  0.0mm 0 W/m2
03:20 51.4 °F /  10.8 °C 50 °F /  10 °C 30in /  1015.2hPa Calm     95% 0in /  0.0mm 0 W/m2
03:25 51.4 °F /  10.8 °C 50 °F /  10 °C 30in /  1015.2hPa Calm     95% 0in /  0.0mm 0 W/m2
03:31 51.3 °F /  10.7 °C 49.8 °F /  9.9 °C 30in /  1015.2hPa Calm     95% 0in /  0.0mm 0 W/m2
03:36 51.3 °F /  10.7 °C 49.8 °F /  9.9 °C 30in /  1015.2hPa Calm     95% 0in /  0.0mm 0 W/m2
03:41 51.1 °F /  10.6 °C 49.6 °F /  9.8 °C 30in /  1015.2hPa Calm     95% 0in /  0.0mm 0 W/m2
03:46 51.1 °F /  10.6 °C 49.6 °F /  9.8 °C 30in /  1015.2hPa Calm     95% 0in /  0.0mm 0 W/m2
03:51 51.1 °F /  10.6 °C 49.6 °F /  9.8 °C 30in /  1015.2hPa Calm     95% 0in /  0.0mm 0 W/m2
03:56 51.1 °F /  10.6 °C 49.6 °F /  9.8 °C 30in /  1015.2hPa Calm     95% 0in /  0.0mm 0 W/m2
04:01 51.1 °F /  10.6 °C 50 °F /  10 °C 30in /  1015.2hPa Calm     96% 0in /  0.0mm 0 W/m2
04:06 51.1 °F /  10.6 °C 50 °F /  10 °C 30in /  1014.9hPa Calm     96% 0in /  0.0mm 0 W/m2
04:11 51.1 °F /  10.6 °C 49.6 °F /  9.8 °C 30in /  1015.2hPa Calm     95% 0in /  0.0mm 0 W/m2
04:16 50.9 °F /  10.5 °C 49.8 °F /  9.9 °C 30in /  1014.9hPa Calm     96% 0in /  0.0mm 0 W/m2
04:21 50.9 °F /  10.5 °C 49.8 °F /  9.9 °C 30in /  1014.9hPa Calm     96% 0in /  0.0mm 0 W/m2
04:26 50.7 °F /  10.4 °C 49.3 °F /  9.6 °C 30in /  1014.9hPa Calm     95% 0in /  0.0mm 0 W/m2
04:31 50.5 °F /  10.3 °C 49.1 °F /  9.5 °C 30in /  1014.9hPa Calm     95% 0in /  0.0mm 0 W/m2
04:36 50.5 °F /  10.3 °C 49.1 °F /  9.5 °C 30in /  1014.9hPa Calm     95% 0in /  0.0mm 0 W/m2
04:41 50.4 °F /  10.2 °C 49.3 °F /  9.6 °C 30in /  1014.9hPa Calm     96% 0in /  0.0mm 0 W/m2
04:46 50.4 °F /  10.2 °C 49.3 °F /  9.6 °C 30in /  1014.9hPa Calm     96% 0in /  0.0mm 0 W/m2
04:51 50.4 °F /  10.2 °C 49.3 °F /  9.6 °C 30in /  1014.9hPa Calm     96% 0in /  0.0mm 0 W/m2
04:56 50.4 °F /  10.2 °C 49.3 °F /  9.6 °C 30in /  1014.9hPa Calm     96% 0in /  0.0mm 0 W/m2
05:01 50.4 °F /  10.2 °C 49.3 °F /  9.6 °C 30in /  1014.9hPa Calm     96% 0in /  0.0mm 0 W/m2
05:06 50.2 °F /  10.1 °C 48.7 °F /  9.3 °C 30in /  1014.9hPa Calm     95% 0in /  0.0mm 0 W/m2
05:11 50.2 °F /  10.1 °C 49.1 °F /  9.5 °C 30in /  1014.9hPa Calm     96% 0in /  0.0mm 0 W/m2
05:16 50.2 °F /  10.1 °C 49.1 °F /  9.5 °C 30in /  1014.9hPa Calm     96% 0in /  0.0mm 0 W/m2
05:21 50.2 °F /  10.1 °C 49.1 °F /  9.5 °C 30in /  1014.9hPa Calm     96% 0in /  0.0mm 0 W/m2
05:26 50.2 °F /  10.1 °C 49.1 °F /  9.5 °C 30in /  1014.9hPa Calm     96% 0in /  0.0mm 0 W/m2
05:31 50.2 °F /  10.1 °C 49.1 °F /  9.5 °C 30in /  1014.9hPa Calm     96% 0in /  0.0mm 0 W/m2
05:36 50.4 °F /  10.2 °C 49.3 °F /  9.6 °C 30in /  1014.9hPa Calm     96% 0in /  0.0mm 0 W/m2
05:41 50.5 °F /  10.3 °C 49.5 °F /  9.7 °C 30in /  1014.9hPa Calm     96% 0in /  0.0mm 0 W/m2
05:46 50.5 °F /  10.3 °C 49.5 °F /  9.7 °C 30in /  1014.9hPa Calm     96% 0in /  0.0mm 0 W/m2
05:51 50.5 °F /  10.3 °C 49.5 °F /  9.7 °C 30in /  1014.9hPa Calm     96% 0in /  0.0mm 0 W/m2
05:56 50.5 °F /  10.3 °C 49.5 °F /  9.7 °C 30in /  1014.9hPa Calm     96% 0in /  0.0mm 0 W/m2
06:01 50.4 °F /  10.2 °C 49.3 °F /  9.6 °C 30in /  1014.9hPa Calm     96% 0in /  0.0mm 0 W/m2
06:06 50.4 °F /  10.2 °C 49.3 °F /  9.6 °C 30in /  1014.9hPa Calm     96% 0in /  0.0mm 0 W/m2
06:11 50.2 °F /  10.1 °C 49.1 °F /  9.5 °C 30in /  1014.9hPa Calm     96% 0in /  0.0mm 0 W/m2
06:16 50.2 °F /  10.1 °C 49.1 °F /  9.5 °C 30in /  1014.9hPa Calm     96% 0in /  0.0mm 0 W/m2
06:21 50 °F /  10 °C 48.9 °F /  9.4 °C 30in /  1014.9hPa Calm     96% 0in /  0.0mm 0 W/m2
06:26 50.2 °F /  10.1 °C 49.1 °F /  9.5 °C 30in /  1014.9hPa Calm     96% 0in /  0.0mm 0 W/m2
06:31 50.4 °F /  10.2 °C 49.3 °F /  9.6 °C 30in /  1014.9hPa Calm     96% 0in /  0.0mm 0 W/m2
06:36 50.5 °F /  10.3 °C 49.5 °F /  9.7 °C 30in /  1014.9hPa Calm     96% 0in /  0.0mm 0 W/m2
06:41 50.5 °F /  10.3 °C 49.6 °F /  9.8 °C 30in /  1014.9hPa Calm     97% 0in /  0.0mm 0 W/m2
06:46 50.7 °F /  10.4 °C 49.8 °F /  9.9 °C 30in /  1014.9hPa Calm   1mph /  1.6km/h 97% 0in /  0.0mm 0 W/m2
06:51 50.7 °F /  10.4 °C 49.8 °F /  9.9 °C 30in /  1014.9hPa Calm     97% 0in /  0.0mm 0 W/m2
06:56 51.1 °F /  10.6 °C 50 °F /  10 °C 30in /  1014.9hPa Calm     96% 0in /  0.0mm 0 W/m2
07:01 51.1 °F /  10.6 °C 50 °F /  10 °C 30in /  1014.9hPa Calm     96% 0in /  0.0mm 0 W/m2
07:06 50.9 °F /  10.5 °C 49.8 °F /  9.9 °C 30in /  1014.9hPa Calm     96% 0in /  0.0mm 0 W/m2
07:11 51.1 °F /  10.6 °C 50 °F /  10 °C 30in /  1015.2hPa South 0.9mph /  1.4km/h 1mph /  1.6km/h 96% 0in /  0.0mm 0 W/m2
07:16 51.1 °F /  10.6 °C 50 °F /  10 °C 30in /  1015.2hPa Calm   1mph /  1.6km/h 96% 0in /  0.0mm 0 W/m2
07:21 51.1 °F /  10.6 °C 50 °F /  10 °C 30in /  1015.2hPa Calm     96% 0in /  0.0mm 5 W/m2
07:26 50.9 °F /  10.5 °C 49.8 °F /  9.9 °C 30in /  1015.2hPa Calm     96% 0in /  0.0mm 7 W/m2
07:31 50.7 °F /  10.4 °C 49.6 °F /  9.8 °C 30in /  1015.2hPa Calm     96% 0in /  0.0mm 11 W/m2
07:37 50.5 °F /  10.3 °C 49.5 °F /  9.7 °C 30in /  1015.2hPa Calm     96% 0in /  0.0mm 12 W/m2
07:42 50.5 °F /  10.3 °C 49.5 °F /  9.7 °C 30in /  1015.2hPa Calm     96% 0in /  0.0mm 14 W/m2
07:47 50.4 °F /  10.2 °C 49.3 °F /  9.6 °C 30in /  1015.2hPa Calm     96% 0in /  0.0mm 16 W/m2
07:52 50.4 °F /  10.2 °C 49.3 °F /  9.6 °C 30in /  1015.2hPa Calm     96% 0in /  0.0mm 18 W/m2
07:57 50.4 °F /  10.2 °C 49.3 °F /  9.6 °C 30in /  1015.2hPa Calm     96% 0in /  0.0mm 19 W/m2
08:02 50.4 °F /  10.2 °C 49.3 °F /  9.6 °C 30in /  1015.2hPa Calm     96% 0in /  0.0mm 21 W/m2
08:07 50.4 °F /  10.2 °C 49.3 °F /  9.6 °C 30in /  1015.2hPa Calm     96% 0in /  0.0mm 21 W/m2
08:12 50.4 °F /  10.2 °C 49.3 °F /  9.6 °C 30in /  1015.2hPa Calm   1mph /  1.6km/h 96% 0in /  0.0mm 23 W/m2
08:17 50.5 °F /  10.3 °C 49.5 °F /  9.7 °C 30in /  1015.6hPa Calm     96% 0in /  0.0mm 25 W/m2
08:22 50.7 °F /  10.4 °C 49.8 °F /  9.9 °C 30in /  1015.2hPa Calm     97% 0in /  0.0mm 28 W/m2
08:27 50.7 °F /  10.4 °C 49.8 °F /  9.9 °C 30in /  1015.6hPa Calm     97% 0in /  0.0mm 44 W/m2
08:32 51.1 °F /  10.6 °C 50.2 °F /  10.1 °C 30in /  1015.6hPa Calm     97% 0in /  0.0mm 105 W/m2
08:37 51.3 °F /  10.7 °C 50.4 °F /  10.2 °C 30in /  1015.6hPa Calm     97% 0in /  0.0mm 95 W/m2
08:42 51.4 °F /  10.8 °C 50.5 °F /  10.3 °C 30in /  1015.6hPa Calm     97% 0in /  0.0mm 35 W/m2
08:47 51.6 °F /  10.9 °C 50.7 °F /  10.4 °C 30in /  1015.6hPa Calm   1mph /  1.6km/h 97% 0in /  0.0mm 35 W/m2
08:52 52 °F /  11.1 °C 51.1 °F /  10.6 °C 30in /  1015.6hPa Calm     97% 0in /  0.0mm 95 W/m2
08:57 52.2 °F /  11.2 °C 51.3 °F /  10.7 °C 30in /  1015.6hPa Calm   1mph /  1.6km/h 97% 0in /  0.0mm 70 W/m2
09:02 52.3 °F /  11.3 °C 51.4 °F /  10.8 °C 30in /  1015.6hPa Calm     97% 0in /  0.0mm 190 W/m2
09:07 52.5 °F /  11.4 °C 51.6 °F /  10.9 °C 30in /  1015.6hPa Calm     97% 0in /  0.0mm 120 W/m2
09:12 52.9 °F /  11.6 °C 52 °F /  11.1 °C 30in /  1015.6hPa Calm     97% 0in /  0.0mm 211 W/m2
09:17 53.2 °F /  11.8 °C 52.3 °F /  11.3 °C 30in /  1015.6hPa Calm     97% 0in /  0.0mm 236 W/m2
09:22 53.8 °F /  12.1 °C 52.9 °F /  11.6 °C 30in /  1015.6hPa Calm     97% 0in /  0.0mm 248 W/m2
09:27 54 °F /  12.2 °C 53.1 °F /  11.7 °C 30in /  1015.6hPa Calm     97% 0in /  0.0mm 258 W/m2
09:32 54.1 °F /  12.3 °C 53.2 °F /  11.8 °C 30in /  1015.6hPa Calm     97% 0in /  0.0mm 272 W/m2
09:37 54.7 °F /  12.6 °C 53.8 °F /  12.1 °C 30in /  1015.6hPa Calm     97% 0in /  0.0mm 281 W/m2
09:42 55 °F /  12.8 °C 54.1 °F /  12.3 °C 30in /  1015.6hPa Calm     97% 0in /  0.0mm 297 W/m2
09:47 55.6 °F /  13.1 °C 54.7 °F /  12.6 °C 30in /  1015.6hPa SE 0.9mph /  1.4km/h 1mph /  1.6km/h 97% 0in /  0.0mm 313 W/m2
09:52 56.1 °F /  13.4 °C 55.2 °F /  12.9 °C 30in /  1015.6hPa Calm   1mph /  1.6km/h 97% 0in /  0.0mm 327 W/m2
09:57 56.8 °F /  13.8 °C 55.8 °F /  13.2 °C 30in /  1015.6hPa SE 0.9mph /  1.4km/h 2mph /  3.2km/h 96% 0in /  0.0mm 338 W/m2
10:02 57.6 °F /  14.2 °C 55.8 °F /  13.2 °C 30in /  1015.6hPa Calm     94% 0in /  0.0mm 352 W/m2
10:07 58.3 °F /  14.6 °C 56.3 °F /  13.5 °C 30in /  1015.9hPa Calm     93% 0in /  0.0mm 364 W/m2
10:12 58.6 °F /  14.8 °C 55.8 °F /  13.2 °C 30in /  1015.6hPa Calm   1mph /  1.6km/h 90% 0in /  0.0mm 381 W/m2
10:17 59.2 °F /  15.1 °C 55.4 °F /  13 °C 30in /  1015.6hPa East 0.9mph /  1.4km/h 1mph /  1.6km/h 87% 0in /  0.0mm 396 W/m2
10:22 59.7 °F /  15.4 °C 54.9 °F /  12.7 °C 30in /  1015.6hPa Calm     84% 0in /  0.0mm 413 W/m2
10:27 60.1 °F /  15.6 °C 54.9 °F /  12.7 °C 30in /  1015.6hPa Calm   2mph /  3.2km/h 83% 0in /  0.0mm 420 W/m2
10:32 60.4 °F /  15.8 °C 55.2 °F /  12.9 °C 30in /  1015.6hPa Calm   2mph /  3.2km/h 83% 0in /  0.0mm 434 W/m2
10:37 60.6 °F /  15.9 °C 55 °F /  12.8 °C 30in /  1015.6hPa Calm     82% 0in /  0.0mm 450 W/m2
10:42 61 °F /  16.1 °C 55 °F /  12.8 °C 30in /  1015.6hPa Calm   1mph /  1.6km/h 81% 0in /  0.0mm 468 W/m2
10:47 61.3 °F /  16.3 °C 55 °F /  12.8 °C 30in /  1015.6hPa NE 0.9mph /  1.4km/h 3mph /  4.8km/h 80% 0in /  0.0mm 478 W/m2
10:52 61.9 °F /  16.6 °C 55.2 °F /  12.9 °C 30in /  1015.6hPa ENE 2.9mph /  4.7km/h 5mph /  8km/h 79% 0in /  0.0mm 478 W/m2
10:57 62.4 °F /  16.9 °C 55.8 °F /  13.2 °C 30in /  1015.6hPa NE 4mph /  6.4km/h 4mph /  6.4km/h 79% 0in /  0.0mm 471 W/m2
11:02 62.8 °F /  17.1 °C 55.4 °F /  13 °C 30in /  1015.6hPa ENE 0.9mph /  1.4km/h 2mph /  3.2km/h 77% 0in /  0.0mm 494 W/m2
11:07 63 °F /  17.2 °C 55.2 °F /  12.9 °C 30in /  1015.6hPa East 2mph /  3.2km/h 3mph /  4.8km/h 76% 0in /  0.0mm 492 W/m2
11:12 63.1 °F /  17.3 °C 55.4 °F /  13 °C 30in /  1015.6hPa ENE 0.9mph /  1.4km/h 2mph /  3.2km/h 76% 0in /  0.0mm 508 W/m2
11:17 63.3 °F /  17.4 °C 55.2 °F /  12.9 °C 30in /  1015.6hPa ENE 2mph /  3.2km/h 3mph /  4.8km/h 75% 0in /  0.0mm 533 W/m2
11:22 63.9 °F /  17.7 °C 56.1 °F /  13.4 °C 30in /  1015.6hPa ENE 2.9mph /  4.7km/h 3mph /  4.8km/h 76% 0in /  0.0mm 552 W/m2
11:27 64.2 °F /  17.9 °C 56.1 °F /  13.4 °C 30in /  1015.6hPa North 2mph /  3.2km/h 3mph /  4.8km/h 75% 0in /  0.0mm 559 W/m2
11:32 64.8 °F /  18.2 °C 56.7 °F /  13.7 °C 30in /  1015.6hPa NE 0.9mph /  1.4km/h 3mph /  4.8km/h 75% 0in /  0.0mm 564 W/m2
11:37 65.3 °F /  18.5 °C 56.8 °F /  13.8 °C 30in /  1015.6hPa Calm   2mph /  3.2km/h 74% 0in /  0.0mm 585 W/m2
11:42 66 °F /  18.9 °C 56.7 °F /  13.7 °C 30in /  1015.2hPa NE 2mph /  3.2km/h 2mph /  3.2km/h 72% 0in /  0.0mm 494 W/m2
11:47 66.2 °F /  19 °C 56.5 °F /  13.6 °C 30in /  1015.2hPa Calm   3mph /  4.8km/h 71% 0in /  0.0mm 452 W/m2
11:52 66.4 °F /  19.1 °C 57 °F /  13.9 °C 30in /  1015.2hPa ENE 0.9mph /  1.4km/h 2mph /  3.2km/h 72% 0in /  0.0mm 622 W/m2
11:57 66.9 °F /  19.4 °C 57.2 °F /  14 °C 30in /  1015.2hPa NE 2mph /  3.2km/h 4mph /  6.4km/h 71% 0in /  0.0mm 441 W/m2
12:02 67.3 °F /  19.6 °C 56.8 °F /  13.8 °C 30in /  1015.6hPa NNW 0.9mph /  1.4km/h 4mph /  6.4km/h 69% 0in /  0.0mm 550 W/m2
12:07 67.6 °F /  19.8 °C 57 °F /  13.9 °C 30in /  1015.2hPa East 4mph /  6.4km/h 4mph /  6.4km/h 69% 0in /  0.0mm 605 W/m2
12:12 68.2 °F /  20.1 °C 57.6 °F /  14.2 °C 30in /  1015.2hPa Calm   4mph /  6.4km/h 69% 0in /  0.0mm 647 W/m2
12:17 68.5 °F /  20.3 °C 57.6 °F /  14.2 °C 30in /  1015.2hPa East 0.9mph /  1.4km/h 3mph /  4.8km/h 68% 0in /  0.0mm 664 W/m2
12:22 69.3 °F /  20.7 °C 57.4 °F /  14.1 °C 30in /  1015.2hPa NNE 2.9mph /  4.7km/h 8mph /  12.9km/h 66% 0in /  0.0mm 680 W/m2
12:27 69.4 °F /  20.8 °C 57.2 °F /  14 °C 30in /  1015.2hPa SE 0.9mph /  1.4km/h 3mph /  4.8km/h 65% 0in /  0.0mm 638 W/m2
12:33 69.6 °F /  20.9 °C 55.9 °F /  13.3 °C 30in /  1015.2hPa ENE 0.9mph /  1.4km/h 4mph /  6.4km/h 62% 0in /  0.0mm 689 W/m2
12:38 70.2 °F /  21.2 °C 56.1 °F /  13.4 °C 30in /  1015.2hPa ENE 2mph /  3.2km/h 7mph /  11.3km/h 61% 0in /  0.0mm 684 W/m2
12:43 70.5 °F /  21.4 °C 55.9 °F /  13.3 °C 30in /  1015.2hPa ENE 4mph /  6.4km/h 6mph /  9.7km/h 60% 0in /  0.0mm 701 W/m2
12:48 70.9 °F /  21.6 °C 55.8 °F /  13.2 °C 30in /  1015.2hPa ENE 2.9mph /  4.7km/h 6mph /  9.7km/h 59% 0in /  0.0mm 712 W/m2
12:53 71.1 °F /  21.7 °C 55.6 °F /  13.1 °C 30in /  1014.9hPa NE 2.9mph /  4.7km/h 8mph /  12.9km/h 58% 0in /  0.0mm 707 W/m2
12:58 71.4 °F /  21.9 °C 54.5 °F /  12.5 °C 30in /  1014.9hPa East 0.9mph /  1.4km/h 9mph /  14.5km/h 55% 0in /  0.0mm 691 W/m2
13:03 71.6 °F /  22 °C 54.5 °F /  12.5 °C 30in /  1014.9hPa NE 6mph /  9.7km/h 6mph /  9.7km/h 55% 0in /  0.0mm 682 W/m2
13:08 71.6 °F /  22 °C 53.6 °F /  12 °C 30in /  1014.9hPa East 2.9mph /  4.7km/h 8mph /  12.9km/h 53% 0in /  0.0mm 717 W/m2
13:13 71.8 °F /  22.1 °C 54.7 °F /  12.6 °C 30in /  1014.9hPa SE 2.9mph /  4.7km/h 5mph /  8km/h 55% 0in /  0.0mm 698 W/m2
13:18 72.1 °F /  22.3 °C 54.5 °F /  12.5 °C 30in /  1014.6hPa NNE 2mph /  3.2km/h 4mph /  6.4km/h 54% 0in /  0.0mm 719 W/m2
13:23 72.3 °F /  22.4 °C 55.2 °F /  12.9 °C 30in /  1014.6hPa NNE 0.9mph /  1.4km/h 3mph /  4.8km/h 55% 0in /  0.0mm 707 W/m2
13:28 72.5 °F /  22.5 °C 54.3 °F /  12.4 °C 30in /  1014.6hPa NE 4mph /  6.4km/h 5mph /  8km/h 53% 0in /  0.0mm 691 W/m2
13:33 72.3 °F /  22.4 °C 53.8 °F /  12.1 °C 30in /  1014.6hPa NE 0.9mph /  1.4km/h 7mph /  11.3km/h 52% 0in /  0.0mm 708 W/m2
13:38 72.3 °F /  22.4 °C 54.1 °F /  12.3 °C 30in /  1014.6hPa SE 0.9mph /  1.4km/h 8mph /  12.9km/h 53% 0in /  0.0mm 703 W/m2
13:43 72.1 °F /  22.3 °C 54.5 °F /  12.5 °C 30in /  1014.6hPa Calm   4mph /  6.4km/h 54% 0in /  0.0mm 689 W/m2
13:48 72.1 °F /  22.3 °C 54.1 °F /  12.3 °C 30in /  1014.6hPa ESE 6.9mph /  11.1km/h 8mph /  12.9km/h 53% 0in /  0.0mm 698 W/m2
13:53 72.1 °F /  22.3 °C 55 °F /  12.8 °C 30in /  1014.6hPa North 0.9mph /  1.4km/h 3mph /  4.8km/h 55% 0in /  0.0mm 675 W/m2
13:58 72.7 °F /  22.6 °C 55 °F /  12.8 °C 30in /  1014.6hPa SE 2.9mph /  4.7km/h 5mph /  8km/h 54% 0in /  0.0mm 670 W/m2
14:03 72.9 °F /  22.7 °C 54.1 °F /  12.3 °C 30in /  1014.6hPa NW 2mph /  3.2km/h 10mph /  16.1km/h 52% 0in /  0.0mm 693 W/m2
14:08 72.9 °F /  22.7 °C 54.1 °F /  12.3 °C 30in /  1014.6hPa North 0.9mph /  1.4km/h 6mph /  9.7km/h 52% 0in /  0.0mm 686 W/m2
14:13 72.7 °F /  22.6 °C 55.6 °F /  13.1 °C 30in /  1014.2hPa NNE 0.9mph /  1.4km/h 10mph /  16.1km/h 55% 0in /  0.0mm 707 W/m2
14:18 72.9 °F /  22.7 °C 55.2 °F /  12.9 °C 30in /  1014.2hPa ESE 2mph /  3.2km/h 8mph /  12.9km/h 54% 0in /  0.0mm 700 W/m2
14:23 72.9 °F /  22.7 °C 54.1 °F /  12.3 °C 30in /  1014.2hPa SSE 0.9mph /  1.4km/h 5mph /  8km/h 52% 0in /  0.0mm 698 W/m2
14:28 73 °F /  22.8 °C 53.8 °F /  12.1 °C 30in /  1014.2hPa SE 2mph /  3.2km/h 6mph /  9.7km/h 51% 0in /  0.0mm 708 W/m2
14:33 73 °F /  22.8 °C 53.8 °F /  12.1 °C 30in /  1014.2hPa ENE 2.9mph /  4.7km/h 6mph /  9.7km/h 51% 0in /  0.0mm 710 W/m2
14:38 73 °F /  22.8 °C 54.9 °F /  12.7 °C 30in /  1014.2hPa NNE 0.9mph /  1.4km/h 4mph /  6.4km/h 53% 0in /  0.0mm 733 W/m2
14:43 73.4 °F /  23 °C 55.2 °F /  12.9 °C 30in /  1014.2hPa NNW 0.9mph /  1.4km/h 5mph /  8km/h 53% 0in /  0.0mm 733 W/m2
14:48 73.8 °F /  23.2 °C 53.4 °F /  11.9 °C 30in /  1014.2hPa NE 0.9mph /  1.4km/h 4mph /  6.4km/h 49% 0in /  0.0mm 722 W/m2
14:53 73.9 °F /  23.3 °C 54.1 °F /  12.3 °C 30in /  1014.2hPa East 0.9mph /  1.4km/h 4mph /  6.4km/h 50% 0in /  0.0mm 619 W/m2
14:58 74.1 °F /  23.4 °C 54.9 °F /  12.7 °C 30in /  1014.2hPa ESE 2mph /  3.2km/h 4mph /  6.4km/h 51% 0in /  0.0mm 606 W/m2
15:03 74.1 °F /  23.4 °C 53.8 °F /  12.1 °C 29.9in /  1013.9hPa SSW 4mph /  6.4km/h 9mph /  14.5km/h 49% 0in /  0.0mm 670 W/m2
15:08 74.1 °F /  23.4 °C 53.2 °F /  11.8 °C 29.9in /  1013.9hPa NE 2mph /  3.2km/h 7mph /  11.3km/h 48% 0in /  0.0mm 703 W/m2
15:13 74.5 °F /  23.6 °C 54.7 °F /  12.6 °C 29.9in /  1013.9hPa ENE 2.9mph /  4.7km/h 4mph /  6.4km/h 50% 0in /  0.0mm 689 W/m2
15:18 74.7 °F /  23.7 °C 54.9 °F /  12.7 °C 29.9in /  1013.9hPa NE 4mph /  6.4km/h 4mph /  6.4km/h 50% 0in /  0.0mm 594 W/m2
15:23 74.5 °F /  23.6 °C 55.2 °F /  12.9 °C 29.9in /  1013.9hPa Calm   2mph /  3.2km/h 51% 0in /  0.0mm 483 W/m2
15:28 74.5 °F /  23.6 °C 54.1 °F /  12.3 °C 29.9in /  1013.9hPa NNW 0.9mph /  1.4km/h 3mph /  4.8km/h 49% 0in /  0.0mm 367 W/m2
15:33 74.1 °F /  23.4 °C 53.8 °F /  12.1 °C 29.9in /  1013.9hPa ESE 0.9mph /  1.4km/h 4mph /  6.4km/h 49% 0in /  0.0mm 420 W/m2
15:38 73.9 °F /  23.3 °C 54.1 °F /  12.3 °C 29.9in /  1013.9hPa NE 0.9mph /  1.4km/h 3mph /  4.8km/h 50% 0in /  0.0mm 279 W/m2
15:43 73.6 °F /  23.1 °C 53.8 °F /  12.1 °C 29.9in /  1013.9hPa East 2.9mph /  4.7km/h 4mph /  6.4km/h 50% 0in /  0.0mm 348 W/m2
15:48 73.2 °F /  22.9 °C 53.4 °F /  11.9 °C 29.9in /  1013.9hPa East 2mph /  3.2km/h 5mph /  8km/h 50% 0in /  0.0mm 352 W/m2
15:53 72.9 °F /  22.7 °C 53.1 °F /  11.7 °C 29.9in /  1013.9hPa East 2mph /  3.2km/h 8mph /  12.9km/h 50% 0in /  0.0mm 299 W/m2
15:58 72.7 °F /  22.6 °C 53.4 °F /  11.9 °C 29.9in /  1013.9hPa East 2mph /  3.2km/h 4mph /  6.4km/h 51% 0in /  0.0mm 237 W/m2
16:03 72.3 °F /  22.4 °C 54.1 °F /  12.3 °C 29.9in /  1013.9hPa ESE 2mph /  3.2km/h 8mph /  12.9km/h 53% 0in /  0.0mm 211 W/m2
16:08 72 °F /  22.2 °C 54 °F /  12.2 °C 29.9in /  1013.9hPa East 0.9mph /  1.4km/h 2mph /  3.2km/h 53% 0in /  0.0mm 218 W/m2
16:13 71.8 °F /  22.1 °C 54.7 °F /  12.6 °C 29.9in /  1013.5hPa Calm   4mph /  6.4km/h 55% 0in /  0.0mm 232 W/m2
16:18 71.4 °F /  21.9 °C 55.9 °F /  13.3 °C 29.9in /  1013.5hPa Calm   1mph /  1.6km/h 58% 0in /  0.0mm 250 W/m2
16:23 71.2 °F /  21.8 °C 56.1 °F /  13.4 °C 29.9in /  1013.5hPa Calm     59% 0in /  0.0mm 246 W/m2
16:28 71.1 °F /  21.7 °C 55.9 °F /  13.3 °C 29.9in /  1013.5hPa SSE 0.9mph /  1.4km/h 1mph /  1.6km/h 59% 0in /  0.0mm 272 W/m2
16:33 71.1 °F /  21.7 °C 56.5 °F /  13.6 °C 29.9in /  1013.5hPa Calm   1mph /  1.6km/h 60% 0in /  0.0mm 309 W/m2
16:38 71.1 °F /  21.7 °C 56.5 °F /  13.6 °C 29.9in /  1013.2hPa Calm   1mph /  1.6km/h 60% 0in /  0.0mm 355 W/m2
16:43 71.2 °F /  21.8 °C 56.1 °F /  13.4 °C 29.9in /  1013.2hPa West 0.9mph /  1.4km/h 3mph /  4.8km/h 59% 0in /  0.0mm 339 W/m2
16:48 71.6 °F /  22 °C 56.1 °F /  13.4 °C 29.9in /  1013.2hPa Calm   2mph /  3.2km/h 58% 0in /  0.0mm 304 W/m2
16:53 71.8 °F /  22.1 °C 55.8 °F /  13.2 °C 29.9in /  1013.2hPa Calm   3mph /  4.8km/h 57% 0in /  0.0mm 236 W/m2
16:58 72 °F /  22.2 °C 54.3 °F /  12.4 °C 29.9in /  1013.2hPa ESE 0.9mph /  1.4km/h 4mph /  6.4km/h 54% 0in /  0.0mm 218 W/m2
17:03 72 °F /  22.2 °C 55.4 °F /  13 °C 29.9in /  1013.2hPa ENE 0.9mph /  1.4km/h 2mph /  3.2km/h 56% 0in /  0.0mm 271 W/m2
17:08 72 °F /  22.2 °C 55.9 °F /  13.3 °C 29.9in /  1013.2hPa NNW 0.9mph /  1.4km/h 3mph /  4.8km/h 57% 0in /  0.0mm 204 W/m2
17:13 71.6 °F /  22 °C 55.6 °F /  13.1 °C 29.9in /  1013.2hPa West 0.9mph /  1.4km/h 3mph /  4.8km/h 57% 0in /  0.0mm 137 W/m2
17:18 71.2 °F /  21.8 °C 56.7 °F /  13.7 °C 29.9in /  1013.2hPa ENE 0.9mph /  1.4km/h 3mph /  4.8km/h 60% 0in /  0.0mm 100 W/m2
17:23 70.9 °F /  21.6 °C 56.3 °F /  13.5 °C 29.9in /  1013.2hPa Calm   1mph /  1.6km/h 60% 0in /  0.0mm 120 W/m2
17:28 70.3 °F /  21.3 °C 56.3 °F /  13.5 °C 29.9in /  1013.2hPa SW 2mph /  3.2km/h 3mph /  4.8km/h 61% 0in /  0.0mm 192 W/m2
17:33 70.2 °F /  21.2 °C 56.1 °F /  13.4 °C 29.9in /  1013.2hPa Calm   2mph /  3.2km/h 61% 0in /  0.0mm 216 W/m2
17:38 70.2 °F /  21.2 °C 56.5 °F /  13.6 °C 29.9in /  1012.9hPa Calm     62% 0in /  0.0mm 230 W/m2
17:43 70.2 °F /  21.2 °C 55.6 °F /  13.1 °C 29.9in /  1012.9hPa Calm   3mph /  4.8km/h 60% 0in /  0.0mm 167 W/m2
17:48 70.2 °F /  21.2 °C 55.6 °F /  13.1 °C 29.9in /  1012.9hPa ENE 0.9mph /  1.4km/h 3mph /  4.8km/h 60% 0in /  0.0mm 130 W/m2
17:53 70.2 °F /  21.2 °C 57 °F /  13.9 °C 29.9in /  1012.9hPa Calm   1mph /  1.6km/h 63% 0in /  0.0mm 151 W/m2
17:58 70 °F /  21.1 °C 56.8 °F /  13.8 °C 29.9in /  1012.9hPa Calm     63% 0in /  0.0mm 98 W/m2
18:03 69.4 °F /  20.8 °C 56.3 °F /  13.5 °C 29.9in /  1012.9hPa Calm   1mph /  1.6km/h 63% 0in /  0.0mm 107 W/m2
18:08 69.1 °F /  20.6 °C 55.9 °F /  13.3 °C 29.9in /  1012.9hPa SSE 0.9mph /  1.4km/h 4mph /  6.4km/h 63% 0in /  0.0mm 100 W/m2
18:13 68.7 °F /  20.4 °C 56.1 °F /  13.4 °C 29.9in /  1012.9hPa Calm   1mph /  1.6km/h 64% 0in /  0.0mm 97 W/m2
18:18 68.5 °F /  20.3 °C 56.3 °F /  13.5 °C 29.9in /  1012.9hPa WNW 0.9mph /  1.4km/h 4mph /  6.4km/h 65% 0in /  0.0mm 95 W/m2
18:23 68.4 °F /  20.2 °C 55.8 °F /  13.2 °C 29.9in /  1012.9hPa SW 0.9mph /  1.4km/h 2mph /  3.2km/h 64% 0in /  0.0mm 97 W/m2
18:28 68.2 °F /  20.1 °C 55.9 °F /  13.3 °C 29.9in /  1012.9hPa ENE 0.9mph /  1.4km/h 3mph /  4.8km/h 65% 0in /  0.0mm 91 W/m2
18:33 68.2 °F /  20.1 °C 56.3 °F /  13.5 °C 29.9in /  1012.9hPa Calm     66% 0in /  0.0mm 90 W/m2
18:38 67.8 °F /  19.9 °C 56.1 °F /  13.4 °C 29.9in /  1012.9hPa SE 0.9mph /  1.4km/h 1mph /  1.6km/h 66% 0in /  0.0mm 91 W/m2
18:43 67.6 °F /  19.8 °C 56.3 °F /  13.5 °C 29.9in /  1012.9hPa Calm     67% 0in /  0.0mm 90 W/m2
18:48 67.5 °F /  19.7 °C 55.8 °F /  13.2 °C 29.9in /  1012.9hPa SE 0.9mph /  1.4km/h 2mph /  3.2km/h 66% 0in /  0.0mm 54 W/m2
18:53 66.9 °F /  19.4 °C 55.6 °F /  13.1 °C 29.9in /  1012.9hPa SE 0.9mph /  1.4km/h 1mph /  1.6km/h 67% 0in /  0.0mm 47 W/m2
18:58 66.6 °F /  19.2 °C 56.1 °F /  13.4 °C 29.9in /  1012.9hPa Calm   2mph /  3.2km/h 69% 0in /  0.0mm 42 W/m2
19:03 66 °F /  18.9 °C 55.9 °F /  13.3 °C 29.9in /  1012.9hPa SE 0.9mph /  1.4km/h 1mph /  1.6km/h 70% 0in /  0.0mm 39 W/m2
19:08 65.7 °F /  18.7 °C 55.6 °F /  13.1 °C 29.9in /  1012.9hPa Calm   2mph /  3.2km/h 70% 0in /  0.0mm 33 W/m2
19:13 65.3 °F /  18.5 °C 55.6 °F /  13.1 °C 29.9in /  1012.9hPa Calm   1mph /  1.6km/h 71% 0in /  0.0mm 30 W/m2
19:18 64.9 °F /  18.3 °C 55.4 °F /  13 °C 29.9in /  1012.9hPa Calm   2mph /  3.2km/h 71% 0in /  0.0mm 26 W/m2
19:23 64.8 °F /  18.2 °C 55.6 °F /  13.1 °C 29.9in /  1012.9hPa Calm     72% 0in /  0.0mm 19 W/m2
19:28 64.6 °F /  18.1 °C 55.4 °F /  13 °C 29.9in /  1012.9hPa Calm   1mph /  1.6km/h 72% 0in /  0.0mm 14 W/m2
19:33 64.2 °F /  17.9 °C 55.4 °F /  13 °C 29.9in /  1012.9hPa Calm     73% 0in /  0.0mm 9 W/m2
19:38 63.9 °F /  17.7 °C 54.7 °F /  12.6 °C 29.9in /  1012.9hPa Calm     72% 0in /  0.0mm 7 W/m2
19:44 63.7 °F /  17.6 °C 54.5 °F /  12.5 °C 29.9in /  1012.9hPa SE 0.9mph /  1.4km/h 2mph /  3.2km/h 72% 0in /  0.0mm 0 W/m2
19:49 63.3 °F /  17.4 °C 54.5 °F /  12.5 °C 29.9in /  1012.9hPa SE 0.9mph /  1.4km/h 1mph /  1.6km/h 73% 0in /  0.0mm 0 W/m2
19:54 63.1 °F /  17.3 °C 54.3 °F /  12.4 °C 29.9in /  1012.9hPa SE 0.9mph /  1.4km/h 1mph /  1.6km/h 73% 0in /  0.0mm 0 W/m2
19:59 63 °F /  17.2 °C 54.1 °F /  12.3 °C 29.9in /  1012.9hPa Calm     73% 0in /  0.0mm 0 W/m2
20:04 62.6 °F /  17 °C 54.1 °F /  12.3 °C 29.9in /  1012.9hPa Calm     74% 0in /  0.0mm 0 W/m2
20:09 62.2 °F /  16.8 °C 53.8 °F /  12.1 °C 29.9in /  1012.9hPa Calm     74% 0in /  0.0mm 0 W/m2
20:14 62.1 °F /  16.7 °C 54 °F /  12.2 °C 29.9in /  1012.9hPa Calm     75% 0in /  0.0mm 0 W/m2
20:19 61.9 °F /  16.6 °C 53.8 °F /  12.1 °C 29.9in /  1012.9hPa Calm     75% 0in /  0.0mm 0 W/m2
20:24 61.5 °F /  16.4 °C 54 °F /  12.2 °C 29.9in /  1012.9hPa Calm     76% 0in /  0.0mm 0 W/m2
20:29 61.2 °F /  16.2 °C 53.6 °F /  12 °C 29.9in /  1012.9hPa Calm     76% 0in /  0.0mm 0 W/m2
20:34 61 °F /  16.1 °C 54.1 °F /  12.3 °C 29.9in /  1012.9hPa Calm     78% 0in /  0.0mm 0 W/m2
20:39 60.6 °F /  15.9 °C 53.8 °F /  12.1 °C 29.9in /  1012.9hPa Calm   1mph /  1.6km/h 78% 0in /  0.0mm 0 W/m2
20:44 60.4 °F /  15.8 °C 53.6 °F /  12 °C 29.9in /  1012.9hPa SE 0.9mph /  1.4km/h 2mph /  3.2km/h 78% 0in /  0.0mm 0 W/m2
20:49 60.3 °F /  15.7 °C 53.8 °F /  12.1 °C 29.9in /  1012.9hPa Calm   1mph /  1.6km/h 79% 0in /  0.0mm 0 W/m2
20:54 60.1 °F /  15.6 °C 53.6 °F /  12 °C 29.9in /  1012.9hPa Calm     79% 0in /  0.0mm 0 W/m2
20:59 59.9 °F /  15.5 °C 54.1 °F /  12.3 °C 29.9in /  1012.9hPa Calm   1mph /  1.6km/h 81% 0in /  0.0mm 0 W/m2
21:04 59.7 °F /  15.4 °C 54 °F /  12.2 °C 29.9in /  1012.9hPa Calm     81% 0in /  0.0mm 0 W/m2
21:09 59.5 °F /  15.3 °C 54 °F /  12.2 °C 29.9in /  1012.9hPa Calm   1mph /  1.6km/h 82% 0in /  0.0mm 0 W/m2
21:14 59.4 °F /  15.2 °C 54.1 °F /  12.3 °C 29.9in /  1012.9hPa SE 0.9mph /  1.4km/h 2mph /  3.2km/h 83% 0in /  0.0mm 0 W/m2
21:19 59.2 °F /  15.1 °C 54 °F /  12.2 °C 29.9in /  1013.2hPa SE 0.9mph /  1.4km/h 2mph /  3.2km/h 83% 0in /  0.0mm 0 W/m2
21:24 59 °F /  15 °C 53.8 °F /  12.1 °C 29.9in /  1013.2hPa Calm   1mph /  1.6km/h 83% 0in /  0.0mm 0 W/m2
21:29 58.8 °F /  14.9 °C 54 °F /  12.2 °C 29.9in /  1012.9hPa Calm     84% 0in /  0.0mm 0 W/m2
21:34 58.6 °F /  14.8 °C 53.8 °F /  12.1 °C 29.9in /  1012.9hPa Calm     84% 0in /  0.0mm 0 W/m2
21:39 58.5 °F /  14.7 °C 54 °F /  12.2 °C 29.9in /  1012.9hPa Calm     85% 0in /  0.0mm 0 W/m2
21:44 58.3 °F /  14.6 °C 53.8 °F /  12.1 °C 29.9in /  1013.2hPa Calm     85% 0in /  0.0mm 0 W/m2
21:49 58.3 °F /  14.6 °C 54.1 °F /  12.3 °C 29.9in /  1013.2hPa Calm     86% 0in /  0.0mm 0 W/m2
21:54 58.3 °F /  14.6 °C 54.1 °F /  12.3 °C 29.9in /  1013.2hPa Calm     86% 0in /  0.0mm 0 W/m2
21:59 57.9 °F /  14.4 °C 53.8 °F /  12.1 °C 29.9in /  1013.2hPa Calm     86% 0in /  0.0mm 0 W/m2
22:04 57.9 °F /  14.4 °C 53.8 °F /  12.1 °C 29.9in /  1013.2hPa Calm     86% 0in /  0.0mm 0 W/m2
22:09 57.7 °F /  14.3 °C 54 °F /  12.2 °C 29.9in /  1013.2hPa Calm     87% 0in /  0.0mm 0 W/m2
22:14 57.6 °F /  14.2 °C 53.8 °F /  12.1 °C 29.9in /  1013.2hPa Calm     87% 0in /  0.0mm 0 W/m2
22:19 57.4 °F /  14.1 °C 53.6 °F /  12 °C 29.9in /  1013.2hPa Calm   2mph /  3.2km/h 87% 0in /  0.0mm 0 W/m2
22:24 57.4 °F /  14.1 °C 53.8 °F /  12.1 °C 29.9in /  1013.2hPa Calm   2mph /  3.2km/h 88% 0in /  0.0mm 0 W/m2
22:29 57.4 °F /  14.1 °C 53.8 °F /  12.1 °C 29.9in /  1013.2hPa Calm     88% 0in /  0.0mm 0 W/m2
22:34 57.2 °F /  14 °C 54 °F /  12.2 °C 29.9in /  1013.2hPa Calm   2mph /  3.2km/h 89% 0in /  0.0mm 0 W/m2
22:39 57.2 °F /  14 °C 53.6 °F /  12 °C 29.9in /  1013.2hPa Calm     88% 0in /  0.0mm 0 W/m2
22:44 57.2 °F /  14 °C 54 °F /  12.2 °C 29.9in /  1012.9hPa Calm   1mph /  1.6km/h 89% 0in /  0.0mm 0 W/m2
22:49 57 °F /  13.9 °C 53.8 °F /  12.1 °C 29.9in /  1012.9hPa Calm     89% 0in /  0.0mm 0 W/m2
22:54 57 °F /  13.9 °C 53.8 °F /  12.1 °C 29.9in /  1012.9hPa Calm     89% 0in /  0.0mm 0 W/m2
22:59 56.8 °F /  13.8 °C 53.6 °F /  12 °C 29.9in /  1012.9hPa Calm   2mph /  3.2km/h 89% 0in /  0.0mm 0 W/m2
23:04 56.8 °F /  13.8 °C 53.6 °F /  12 °C 29.9in /  1012.9hPa Calm   1mph /  1.6km/h 89% 0in /  0.0mm 0 W/m2
23:09 56.7 °F /  13.7 °C 53.4 °F /  11.9 °C 29.9in /  1012.9hPa Calm   2mph /  3.2km/h 89% 0in /  0.0mm 0 W/m2
23:14 56.8 °F /  13.8 °C 53.6 °F /  12 °C 29.9in /  1012.9hPa SE 0.9mph /  1.4km/h 1mph /  1.6km/h 89% 0in /  0.0mm 0 W/m2
23:19 56.7 °F /  13.7 °C 53.4 °F /  11.9 °C 29.9in /  1012.9hPa SE 0.9mph /  1.4km/h 2mph /  3.2km/h 89% 0in /  0.0mm 0 W/m2
23:24 56.7 °F /  13.7 °C 53.4 °F /  11.9 °C 29.9in /  1012.9hPa SE 0.9mph /  1.4km/h 2mph /  3.2km/h 89% 0in /  0.0mm 0 W/m2
23:29 56.7 °F /  13.7 °C 53.4 °F /  11.9 °C 29.9in /  1012.9hPa Calm   1mph /  1.6km/h 89% 0in /  0.0mm 0 W/m2
23:34 56.5 °F /  13.6 °C 53.2 °F /  11.8 °C 29.9in /  1012.9hPa SE 0.9mph /  1.4km/h 2mph /  3.2km/h 89% 0in /  0.0mm 0 W/m2
23:39 56.5 °F /  13.6 °C 53.2 °F /  11.8 °C 29.9in /  1012.9hPa Calm     89% 0in /  0.0mm 0 W/m2
23:44 56.3 °F /  13.5 °C 53.1 °F /  11.7 °C 29.9in /  1012.9hPa Calm     89% 0in /  0.0mm 0 W/m2
23:49 56.3 °F /  13.5 °C 53.4 °F /  11.9 °C 29.9in /  1012.9hPa Calm   1mph /  1.6km/h 90% 0in /  0.0mm 0 W/m2
23:54 56.1 °F /  13.4 °C 53.2 °F /  11.8 °C 29.9in /  1012.9hPa Calm     90% 0in /  0.0mm 0 W/m2
23:59 56.1 °F /  13.4 °C 53.2 °F /  11.8 °C 29.9in /  1012.9hPa Calm     90% 0in /  0.0mm 0 W/m2
Juneau County Weather
Compliments of Weather Underground - 4 mb